sensor_id;sensor_type;location;lat;lon;timestamp;temperature;humidity
4530;DHT22;2277;51.626;7.516;2024-01-16T00:00:45;2.90;99.90
4530;DHT22;2277;51.626;7.516;2024-01-16T00:03:12;3.00;99.90
4530;DHT22;2277;51.626;7.516;2024-01-16T00:05:37;3.00;99.90
4530;DHT22;2277;51.626;7.516;2024-01-16T00:08:03;2.90;99.90
4530;DHT22;2277;51.626;7.516;2024-01-16T00:10:29;2.90;99.90
4530;DHT22;2277;51.626;7.516;2024-01-16T00:12:54;2.90;99.90
4530;DHT22;2277;51.626;7.516;2024-01-16T00:15:20;3.00;99.90
4530;DHT22;2277;51.626;7.516;2024-01-16T00:17:46;2.90;99.90
4530;DHT22;2277;51.626;7.516;2024-01-16T00:20:11;2.80;99.90
4530;DHT22;2277;51.626;7.516;2024-01-16T00:22:37;2.80;99.90
4530;DHT22;2277;51.626;7.516;2024-01-16T00:25:03;2.80;99.90
4530;DHT22;2277;51.626;7.516;2024-01-16T00:27:28;2.80;99.90
4530;DHT22;2277;51.626;7.516;2024-01-16T00:29:54;2.80;99.90
4530;DHT22;2277;51.626;7.516;2024-01-16T00:32:19;2.80;99.90
4530;DHT22;2277;51.626;7.516;2024-01-16T00:34:45;2.80;99.90
4530;DHT22;2277;51.626;7.516;2024-01-16T00:37:11;2.80;99.90
4530;DHT22;2277;51.626;7.516;2024-01-16T00:39:36;2.70;99.90
4530;DHT22;2277;51.626;7.516;2024-01-16T00:42:02;2.70;99.90
4530;DHT22;2277;51.626;7.516;2024-01-16T00:44:28;2.70;99.90
4530;DHT22;2277;51.626;7.516;2024-01-16T00:46:54;2.80;99.90
4530;DHT22;2277;51.626;7.516;2024-01-16T00:49:19;2.90;99.90
4530;DHT22;2277;51.626;7.516;2024-01-16T00:51:45;2.80;99.90
4530;DHT22;2277;51.626;7.516;2024-01-16T00:54:11;2.80;99.90
4530;DHT22;2277;51.626;7.516;2024-01-16T00:56:36;2.90;99.90
4530;DHT22;2277;51.626;7.516;2024-01-16T00:59:02;2.90;99.90
4530;DHT22;2277;51.626;7.516;2024-01-16T01:01:28;3.00;99.90
4530;DHT22;2277;51.626;7.516;2024-01-16T01:03:54;2.90;99.90
4530;DHT22;2277;51.626;7.516;2024-01-16T01:06:20;2.90;99.90
4530;DHT22;2277;51.626;7.516;2024-01-16T01:08:46;2.90;99.90
4530;DHT22;2277;51.626;7.516;2024-01-16T01:11:12;3.00;99.90
4530;DHT22;2277;51.626;7.516;2024-01-16T01:13:38;3.00;99.90
4530;DHT22;2277;51.626;7.516;2024-01-16T01:16:03;3.00;99.90
4530;DHT22;2277;51.626;7.516;2024-01-16T01:18:29;2.90;99.90
4530;DHT22;2277;51.626;7.516;2024-01-16T01:20:55;2.90;99.90
4530;DHT22;2277;51.626;7.516;2024-01-16T01:23:21;2.90;99.90
4530;DHT22;2277;51.626;7.516;2024-01-16T01:25:47;2.80;99.90
4530;DHT22;2277;51.626;7.516;2024-01-16T01:28:12;2.80;99.90
4530;DHT22;2277;51.626;7.516;2024-01-16T01:30:38;2.80;99.90
4530;DHT22;2277;51.626;7.516;2024-01-16T01:33:04;2.90;99.90
4530;DHT22;2277;51.626;7.516;2024-01-16T01:35:30;2.80;99.90
4530;DHT22;2277;51.626;7.516;2024-01-16T01:37:56;2.80;99.90
4530;DHT22;2277;51.626;7.516;2024-01-16T01:40:21;2.70;99.90
4530;DHT22;2277;51.626;7.516;2024-01-16T01:42:47;2.70;99.90
4530;DHT22;2277;51.626;7.516;2024-01-16T01:45:12;2.60;99.90
4530;DHT22;2277;51.626;7.516;2024-01-16T01:47:39;2.60;99.90
4530;DHT22;2277;51.626;7.516;2024-01-16T01:50:06;2.60;99.90
4530;DHT22;2277;51.626;7.516;2024-01-16T01:52:33;2.70;99.90
4530;DHT22;2277;51.626;7.516;2024-01-16T01:54:59;2.70;99.90
4530;DHT22;2277;51.626;7.516;2024-01-16T01:57:26;2.70;99.90
4530;DHT22;2277;51.626;7.516;2024-01-16T01:59:52;2.70;99.90
4530;DHT22;2277;51.626;7.516;2024-01-16T02:02:17;2.60;99.90
4530;DHT22;2277;51.626;7.516;2024-01-16T02:04:44;2.60;99.90
4530;DHT22;2277;51.626;7.516;2024-01-16T02:07:12;2.60;99.90
4530;DHT22;2277;51.626;7.516;2024-01-16T02:09:37;2.60;99.90
4530;DHT22;2277;51.626;7.516;2024-01-16T02:12:05;2.60;99.90
4530;DHT22;2277;51.626;7.516;2024-01-16T02:14:31;2.60;99.90
4530;DHT22;2277;51.626;7.516;2024-01-16T02:16:56;2.60;99.90
4530;DHT22;2277;51.626;7.516;2024-01-16T02:19:22;2.70;99.90
4530;DHT22;2277;51.626;7.516;2024-01-16T02:21:48;2.60;99.90
4530;DHT22;2277;51.626;7.516;2024-01-16T02:24:15;2.60;99.90
4530;DHT22;2277;51.626;7.516;2024-01-16T02:26:42;2.50;99.90
4530;DHT22;2277;51.626;7.516;2024-01-16T02:29:08;2.60;99.90
4530;DHT22;2277;51.626;7.516;2024-01-16T02:31:33;2.60;99.90
4530;DHT22;2277;51.626;7.516;2024-01-16T02:34:00;2.60;99.90
4530;DHT22;2277;51.626;7.516;2024-01-16T02:36:26;2.60;99.90
4530;DHT22;2277;51.626;7.516;2024-01-16T02:38:52;2.70;99.90
4530;DHT22;2277;51.626;7.516;2024-01-16T02:41:17;2.70;99.90
4530;DHT22;2277;51.626;7.516;2024-01-16T02:43:43;2.60;99.90
4530;DHT22;2277;51.626;7.516;2024-01-16T02:46:09;2.50;99.90
4530;DHT22;2277;51.626;7.516;2024-01-16T02:48:36;2.60;99.90
4530;DHT22;2277;51.626;7.516;2024-01-16T02:51:01;2.60;99.90
4530;DHT22;2277;51.626;7.516;2024-01-16T02:53:28;2.60;99.90
4530;DHT22;2277;51.626;7.516;2024-01-16T02:55:54;2.70;99.90
4530;DHT22;2277;51.626;7.516;2024-01-16T02:58:20;2.60;99.90
4530;DHT22;2277;51.626;7.516;2024-01-16T03:00:46;2.60;99.90
4530;DHT22;2277;51.626;7.516;2024-01-16T03:03:12;2.60;99.90
4530;DHT22;2277;51.626;7.516;2024-01-16T03:05:38;2.60;99.90
4530;DHT22;2277;51.626;7.516;2024-01-16T03:08:04;2.70;99.90
4530;DHT22;2277;51.626;7.516;2024-01-16T03:10:30;2.60;99.90
4530;DHT22;2277;51.626;7.516;2024-01-16T03:12:56;2.60;99.90
4530;DHT22;2277;51.626;7.516;2024-01-16T03:15:22;2.60;99.90
4530;DHT22;2277;51.626;7.516;2024-01-16T03:17:48;2.70;99.90
4530;DHT22;2277;51.626;7.516;2024-01-16T03:20:15;2.60;99.90
4530;DHT22;2277;51.626;7.516;2024-01-16T03:22:41;2.70;99.90
4530;DHT22;2277;51.626;7.516;2024-01-16T03:25:08;2.60;99.90
4530;DHT22;2277;51.626;7.516;2024-01-16T03:27:34;2.70;99.90
4530;DHT22;2277;51.626;7.516;2024-01-16T03:30:01;2.60;99.90
4530;DHT22;2277;51.626;7.516;2024-01-16T03:32:26;2.70;99.90
4530;DHT22;2277;51.626;7.516;2024-01-16T03:34:52;2.70;99.90
4530;DHT22;2277;51.626;7.516;2024-01-16T03:37:17;2.70;99.90
4530;DHT22;2277;51.626;7.516;2024-01-16T03:39:43;2.60;99.90
4530;DHT22;2277;51.626;7.516;2024-01-16T03:42:10;2.60;99.90
4530;DHT22;2277;51.626;7.516;2024-01-16T03:44:40;2.60;99.90
4530;DHT22;2277;51.626;7.516;2024-01-16T03:47:06;2.60;99.90
4530;DHT22;2277;51.626;7.516;2024-01-16T03:49:32;2.50;99.90
4530;DHT22;2277;51.626;7.516;2024-01-16T03:51:58;2.60;99.90
4530;DHT22;2277;51.626;7.516;2024-01-16T03:54:24;2.70;99.90
4530;DHT22;2277;51.626;7.516;2024-01-16T03:56:51;2.60;99.90
4530;DHT22;2277;51.626;7.516;2024-01-16T03:59:16;2.60;99.90
4530;DHT22;2277;51.626;7.516;2024-01-16T04:01:42;2.60;99.90
4530;DHT22;2277;51.626;7.516;2024-01-16T04:04:10;2.70;99.90
4530;DHT22;2277;51.626;7.516;2024-01-16T04:06:36;2.70;99.90
4530;DHT22;2277;51.626;7.516;2024-01-16T04:09:02;2.70;99.90
4530;DHT22;2277;51.626;7.516;2024-01-16T04:11:28;2.70;99.90
4530;DHT22;2277;51.626;7.516;2024-01-16T04:13:54;2.80;99.90
4530;DHT22;2277;51.626;7.516;2024-01-16T04:16:20;2.70;99.90
4530;DHT22;2277;51.626;7.516;2024-01-16T04:18:45;2.70;99.90
4530;DHT22;2277;51.626;7.516;2024-01-16T04:21:11;2.70;99.90
4530;DHT22;2277;51.626;7.516;2024-01-16T04:23:37;2.70;99.90
4530;DHT22;2277;51.626;7.516;2024-01-16T04:26:02;2.70;99.90
4530;DHT22;2277;51.626;7.516;2024-01-16T04:28:28;2.70;99.90
4530;DHT22;2277;51.626;7.516;2024-01-16T04:30:54;2.70;99.90
4530;DHT22;2277;51.626;7.516;2024-01-16T04:33:19;2.70;99.90
4530;DHT22;2277;51.626;7.516;2024-01-16T04:35:45;2.80;99.90
4530;DHT22;2277;51.626;7.516;2024-01-16T04:38:11;2.70;99.90
4530;DHT22;2277;51.626;7.516;2024-01-16T04:40:37;2.70;99.90
4530;DHT22;2277;51.626;7.516;2024-01-16T04:43:02;2.70;99.90
4530;DHT22;2277;51.626;7.516;2024-01-16T04:45:28;2.70;99.90
4530;DHT22;2277;51.626;7.516;2024-01-16T04:47:54;2.80;99.90
4530;DHT22;2277;51.626;7.516;2024-01-16T04:50:19;2.80;99.90
4530;DHT22;2277;51.626;7.516;2024-01-16T04:52:45;2.80;99.90
4530;DHT22;2277;51.626;7.516;2024-01-16T04:55:11;2.80;99.90
4530;DHT22;2277;51.626;7.516;2024-01-16T04:57:36;2.90;99.90
4530;DHT22;2277;51.626;7.516;2024-01-16T05:00:03;2.80;99.90
4530;DHT22;2277;51.626;7.516;2024-01-16T05:02:35;2.80;99.90
4530;DHT22;2277;51.626;7.516;2024-01-16T05:05:01;2.90;99.90
4530;DHT22;2277;51.626;7.516;2024-01-16T05:07:27;2.90;99.90
4530;DHT22;2277;51.626;7.516;2024-01-16T05:09:52;2.90;99.90
4530;DHT22;2277;51.626;7.516;2024-01-16T05:12:19;2.90;99.90
4530;DHT22;2277;51.626;7.516;2024-01-16T05:14:44;2.90;99.90
4530;DHT22;2277;51.626;7.516;2024-01-16T05:17:10;2.90;99.90
4530;DHT22;2277;51.626;7.516;2024-01-16T05:19:38;2.90;99.90
4530;DHT22;2277;51.626;7.516;2024-01-16T05:22:04;2.90;99.90
4530;DHT22;2277;51.626;7.516;2024-01-16T05:24:29;3.00;99.90
4530;DHT22;2277;51.626;7.516;2024-01-16T05:26:55;3.00;99.90
4530;DHT22;2277;51.626;7.516;2024-01-16T05:29:21;2.90;99.90
4530;DHT22;2277;51.626;7.516;2024-01-16T05:31:46;2.90;99.90
4530;DHT22;2277;51.626;7.516;2024-01-16T05:34:12;2.90;99.90
4530;DHT22;2277;51.626;7.516;2024-01-16T05:36:38;2.90;99.90
4530;DHT22;2277;51.626;7.516;2024-01-16T05:39:03;2.90;99.90
4530;DHT22;2277;51.626;7.516;2024-01-16T05:41:33;2.90;99.90
4530;DHT22;2277;51.626;7.516;2024-01-16T05:43:59;3.00;99.90
4530;DHT22;2277;51.626;7.516;2024-01-16T05:46:24;3.00;99.90
4530;DHT22;2277;51.626;7.516;2024-01-16T05:48:50;2.90;99.90
4530;DHT22;2277;51.626;7.516;2024-01-16T05:51:16;2.90;99.90
4530;DHT22;2277;51.626;7.516;2024-01-16T05:53:41;2.90;99.90
4530;DHT22;2277;51.626;7.516;2024-01-16T05:56:07;2.90;99.90
4530;DHT22;2277;51.626;7.516;2024-01-16T05:58:33;2.90;99.90
4530;DHT22;2277;51.626;7.516;2024-01-16T06:01:06;2.90;99.90
4530;DHT22;2277;51.626;7.516;2024-01-16T06:03:32;2.90;99.90
4530;DHT22;2277;51.626;7.516;2024-01-16T06:05:58;2.90;99.90
4530;DHT22;2277;51.626;7.516;2024-01-16T06:08:24;3.00;99.90
4530;DHT22;2277;51.626;7.516;2024-01-16T06:10:50;2.90;99.90
4530;DHT22;2277;51.626;7.516;2024-01-16T06:13:18;2.90;99.90
4530;DHT22;2277;51.626;7.516;2024-01-16T06:15:43;3.00;99.90
4530;DHT22;2277;51.626;7.516;2024-01-16T06:18:09;3.00;99.90
4530;DHT22;2277;51.626;7.516;2024-01-16T06:20:35;3.00;99.90
4530;DHT22;2277;51.626;7.516;2024-01-16T06:23:01;3.00;99.90
4530;DHT22;2277;51.626;7.516;2024-01-16T06:25:26;2.90;99.90
4530;DHT22;2277;51.626;7.516;2024-01-16T06:27:52;2.90;99.90
4530;DHT22;2277;51.626;7.516;2024-01-16T06:30:17;3.00;99.90
4530;DHT22;2277;51.626;7.516;2024-01-16T06:32:43;2.90;99.90
4530;DHT22;2277;51.626;7.516;2024-01-16T06:35:09;2.90;99.90
4530;DHT22;2277;51.626;7.516;2024-01-16T06:37:34;2.90;99.90
4530;DHT22;2277;51.626;7.516;2024-01-16T06:40:01;3.00;99.90
4530;DHT22;2277;51.626;7.516;2024-01-16T06:42:28;2.90;99.90
4530;DHT22;2277;51.626;7.516;2024-01-16T06:44:53;2.90;99.90
4530;DHT22;2277;51.626;7.516;2024-01-16T06:47:19;2.90;99.90
4530;DHT22;2277;51.626;7.516;2024-01-16T06:49:44;2.90;99.90
4530;DHT22;2277;51.626;7.516;2024-01-16T06:52:10;2.90;99.90
4530;DHT22;2277;51.626;7.516;2024-01-16T06:54:36;3.00;99.90
4530;DHT22;2277;51.626;7.516;2024-01-16T06:57:01;3.00;99.90
4530;DHT22;2277;51.626;7.516;2024-01-16T06:59:27;3.00;99.90
4530;DHT22;2277;51.626;7.516;2024-01-16T07:01:52;3.00;99.90
4530;DHT22;2277;51.626;7.516;2024-01-16T07:04:19;2.90;99.90
4530;DHT22;2277;51.626;7.516;2024-01-16T07:06:45;2.90;99.90
4530;DHT22;2277;51.626;7.516;2024-01-16T07:09:11;3.00;99.90
4530;DHT22;2277;51.626;7.516;2024-01-16T07:11:37;2.90;99.90
4530;DHT22;2277;51.626;7.516;2024-01-16T07:14:04;3.00;99.90
4530;DHT22;2277;51.626;7.516;2024-01-16T07:16:29;3.00;99.90
4530;DHT22;2277;51.626;7.516;2024-01-16T07:18:55;3.00;99.90
4530;DHT22;2277;51.626;7.516;2024-01-16T07:21:21;3.00;99.90
4530;DHT22;2277;51.626;7.516;2024-01-16T07:23:47;3.00;99.90
4530;DHT22;2277;51.626;7.516;2024-01-16T07:26:13;3.00;99.90
4530;DHT22;2277;51.626;7.516;2024-01-16T07:28:38;3.00;99.90
4530;DHT22;2277;51.626;7.516;2024-01-16T07:31:04;3.00;99.90
4530;DHT22;2277;51.626;7.516;2024-01-16T07:33:30;3.00;99.90
4530;DHT22;2277;51.626;7.516;2024-01-16T07:35:56;3.00;99.90
4530;DHT22;2277;51.626;7.516;2024-01-16T07:38:21;3.00;99.90
4530;DHT22;2277;51.626;7.516;2024-01-16T07:40:47;2.90;99.90
4530;DHT22;2277;51.626;7.516;2024-01-16T07:43:17;2.90;99.90
4530;DHT22;2277;51.626;7.516;2024-01-16T07:45:43;3.00;99.90
4530;DHT22;2277;51.626;7.516;2024-01-16T07:48:08;3.00;99.90
4530;DHT22;2277;51.626;7.516;2024-01-16T07:50:34;3.00;99.90
4530;DHT22;2277;51.626;7.516;2024-01-16T07:53:00;3.10;99.90
4530;DHT22;2277;51.626;7.516;2024-01-16T07:55:25;3.00;99.90
4530;DHT22;2277;51.626;7.516;2024-01-16T07:57:53;3.00;99.90
4530;DHT22;2277;51.626;7.516;2024-01-16T08:00:19;3.00;99.90
4530;DHT22;2277;51.626;7.516;2024-01-16T08:02:45;3.00;99.90
4530;DHT22;2277;51.626;7.516;2024-01-16T08:05:10;3.10;99.90
4530;DHT22;2277;51.626;7.516;2024-01-16T08:07:36;3.00;99.90
4530;DHT22;2277;51.626;7.516;2024-01-16T08:10:02;3.10;99.90
4530;DHT22;2277;51.626;7.516;2024-01-16T08:12:28;3.10;99.90
4530;DHT22;2277;51.626;7.516;2024-01-16T08:14:53;3.00;99.90
4530;DHT22;2277;51.626;7.516;2024-01-16T08:17:19;2.80;99.90
4530;DHT22;2277;51.626;7.516;2024-01-16T08:19:44;2.90;99.90
4530;DHT22;2277;51.626;7.516;2024-01-16T08:22:10;2.90;99.90
4530;DHT22;2277;51.626;7.516;2024-01-16T08:24:36;2.90;99.90
4530;DHT22;2277;51.626;7.516;2024-01-16T08:27:02;2.80;99.90
4530;DHT22;2277;51.626;7.516;2024-01-16T08:29:28;2.80;99.90
4530;DHT22;2277;51.626;7.516;2024-01-16T08:31:54;2.70;99.90
4530;DHT22;2277;51.626;7.516;2024-01-16T08:34:20;2.60;99.90
4530;DHT22;2277;51.626;7.516;2024-01-16T08:36:45;2.70;99.90
4530;DHT22;2277;51.626;7.516;2024-01-16T08:39:11;2.60;99.90
4530;DHT22;2277;51.626;7.516;2024-01-16T08:41:37;2.50;99.90
4530;DHT22;2277;51.626;7.516;2024-01-16T08:44:02;2.60;99.90
4530;DHT22;2277;51.626;7.516;2024-01-16T08:46:28;2.60;99.90
4530;DHT22;2277;51.626;7.516;2024-01-16T08:48:54;2.60;99.90
4530;DHT22;2277;51.626;7.516;2024-01-16T08:51:19;2.70;99.90
4530;DHT22;2277;51.626;7.516;2024-01-16T08:53:45;2.60;99.90
4530;DHT22;2277;51.626;7.516;2024-01-16T08:56:11;2.70;99.90
4530;DHT22;2277;51.626;7.516;2024-01-16T08:58:38;2.70;99.90
4530;DHT22;2277;51.626;7.516;2024-01-16T09:01:04;2.70;99.90
4530;DHT22;2277;51.626;7.516;2024-01-16T09:03:33;2.80;99.90
4530;DHT22;2277;51.626;7.516;2024-01-16T09:06:00;2.80;99.90
4530;DHT22;2277;51.626;7.516;2024-01-16T09:08:26;2.70;99.90
4530;DHT22;2277;51.626;7.516;2024-01-16T09:10:52;2.70;99.90
4530;DHT22;2277;51.626;7.516;2024-01-16T09:13:18;2.70;99.90
4530;DHT22;2277;51.626;7.516;2024-01-16T09:15:46;2.80;99.90
4530;DHT22;2277;51.626;7.516;2024-01-16T09:18:12;2.90;99.90
4530;DHT22;2277;51.626;7.516;2024-01-16T09:20:38;2.90;99.90
4530;DHT22;2277;51.626;7.516;2024-01-16T09:23:03;2.90;99.90
4530;DHT22;2277;51.626;7.516;2024-01-16T09:25:29;2.90;99.90
4530;DHT22;2277;51.626;7.516;2024-01-16T09:27:55;2.90;99.90
4530;DHT22;2277;51.626;7.516;2024-01-16T09:30:20;2.80;99.90
4530;DHT22;2277;51.626;7.516;2024-01-16T09:32:48;2.80;99.90
4530;DHT22;2277;51.626;7.516;2024-01-16T09:35:14;2.80;99.90
4530;DHT22;2277;51.626;7.516;2024-01-16T09:37:39;2.70;99.90
4530;DHT22;2277;51.626;7.516;2024-01-16T09:40:06;2.70;99.90
4530;DHT22;2277;51.626;7.516;2024-01-16T09:42:32;2.80;99.90
4530;DHT22;2277;51.626;7.516;2024-01-16T09:45:00;2.80;99.90
4530;DHT22;2277;51.626;7.516;2024-01-16T09:47:30;2.80;99.90
4530;DHT22;2277;51.626;7.516;2024-01-16T09:49:57;2.80;99.90
4530;DHT22;2277;51.626;7.516;2024-01-16T09:52:24;2.70;99.90
4530;DHT22;2277;51.626;7.516;2024-01-16T09:54:50;2.80;99.90
4530;DHT22;2277;51.626;7.516;2024-01-16T09:57:19;2.80;99.90
4530;DHT22;2277;51.626;7.516;2024-01-16T09:59:48;2.80;99.90
4530;DHT22;2277;51.626;7.516;2024-01-16T10:02:14;2.80;99.90
4530;DHT22;2277;51.626;7.516;2024-01-16T10:04:41;2.80;99.90
4530;DHT22;2277;51.626;7.516;2024-01-16T10:07:08;2.70;99.90
4530;DHT22;2277;51.626;7.516;2024-01-16T10:09:35;2.80;99.90
4530;DHT22;2277;51.626;7.516;2024-01-16T10:12:01;2.80;99.90
4530;DHT22;2277;51.626;7.516;2024-01-16T10:14:26;2.80;99.90
4530;DHT22;2277;51.626;7.516;2024-01-16T10:17:03;2.90;99.90
4530;DHT22;2277;51.626;7.516;2024-01-16T10:19:35;2.90;99.90
4530;DHT22;2277;51.626;7.516;2024-01-16T10:22:04;2.90;99.90
4530;DHT22;2277;51.626;7.516;2024-01-16T10:24:32;2.90;99.90
4530;DHT22;2277;51.626;7.516;2024-01-16T10:27:01;2.90;99.90
4530;DHT22;2277;51.626;7.516;2024-01-16T10:29:29;3.00;99.90
4530;DHT22;2277;51.626;7.516;2024-01-16T10:31:57;3.00;99.90
4530;DHT22;2277;51.626;7.516;2024-01-16T10:34:23;3.10;99.90
4530;DHT22;2277;51.626;7.516;2024-01-16T10:36:58;3.10;99.90
4530;DHT22;2277;51.626;7.516;2024-01-16T10:39:24;3.10;99.90
4530;DHT22;2277;51.626;7.516;2024-01-16T10:41:58;3.10;99.90
4530;DHT22;2277;51.626;7.516;2024-01-16T10:44:24;3.10;99.90
4530;DHT22;2277;51.626;7.516;2024-01-16T10:46:50;3.10;99.90
4530;DHT22;2277;51.626;7.516;2024-01-16T10:49:16;3.10;99.90
4530;DHT22;2277;51.626;7.516;2024-01-16T10:51:44;3.10;99.90
4530;DHT22;2277;51.626;7.516;2024-01-16T10:54:13;3.10;99.90
4530;DHT22;2277;51.626;7.516;2024-01-16T10:56:44;3.10;99.90
4530;DHT22;2277;51.626;7.516;2024-01-16T10:59:35;3.00;99.90
4530;DHT22;2277;51.626;7.516;2024-01-16T11:02:08;3.00;99.90
4530;DHT22;2277;51.626;7.516;2024-01-16T11:04:36;3.00;99.90
4530;DHT22;2277;51.626;7.516;2024-01-16T11:07:04;3.00;99.90
4530;DHT22;2277;51.626;7.516;2024-01-16T11:09:31;2.90;99.90
4530;DHT22;2277;51.626;7.516;2024-01-16T11:11:57;3.00;99.90
4530;DHT22;2277;51.626;7.516;2024-01-16T11:14:25;3.10;99.90
4530;DHT22;2277;51.626;7.516;2024-01-16T11:16:51;3.10;99.90
4530;DHT22;2277;51.626;7.516;2024-01-16T11:19:18;3.20;99.90
4530;DHT22;2277;51.626;7.516;2024-01-16T11:21:45;3.30;99.90
4530;DHT22;2277;51.626;7.516;2024-01-16T11:24:12;3.40;99.90
4530;DHT22;2277;51.626;7.516;2024-01-16T11:26:40;3.40;99.90
4530;DHT22;2277;51.626;7.516;2024-01-16T11:31:54;3.50;99.90
4530;DHT22;2277;51.626;7.516;2024-01-16T11:37:08;3.60;99.90
4530;DHT22;2277;51.626;7.516;2024-01-16T11:39:35;3.50;99.90
4530;DHT22;2277;51.626;7.516;2024-01-16T11:42:01;3.60;99.90
4530;DHT22;2277;51.626;7.516;2024-01-16T11:44:48;3.60;99.90
4530;DHT22;2277;51.626;7.516;2024-01-16T11:47:24;3.70;99.90
4530;DHT22;2277;51.626;7.516;2024-01-16T11:49:51;3.80;99.90
4530;DHT22;2277;51.626;7.516;2024-01-16T11:52:39;3.80;99.90
4530;DHT22;2277;51.626;7.516;2024-01-16T11:55:28;3.90;99.90
4530;DHT22;2277;51.626;7.516;2024-01-16T12:00:32;4.00;99.90
4530;DHT22;2277;51.626;7.516;2024-01-16T12:03:02;4.10;99.90
4530;DHT22;2277;51.626;7.516;2024-01-16T12:05:31;4.20;99.90
4530;DHT22;2277;51.626;7.516;2024-01-16T12:07:57;4.50;99.90
4530;DHT22;2277;51.626;7.516;2024-01-16T12:10:24;4.80;99.90
4530;DHT22;2277;51.626;7.516;2024-01-16T12:12:51;5.30;99.90
4530;DHT22;2277;51.626;7.516;2024-01-16T12:15:18;5.40;99.90
4530;DHT22;2277;51.626;7.516;2024-01-16T12:18:00;5.60;99.90
4530;DHT22;2277;51.626;7.516;2024-01-16T12:20:28;5.80;99.90
4530;DHT22;2277;51.626;7.516;2024-01-16T12:22:55;5.90;99.90
4530;DHT22;2277;51.626;7.516;2024-01-16T12:25:20;6.00;99.90
4530;DHT22;2277;51.626;7.516;2024-01-16T12:27:59;6.20;99.90
4530;DHT22;2277;51.626;7.516;2024-01-16T12:30:35;6.40;99.90
4530;DHT22;2277;51.626;7.516;2024-01-16T12:33:07;6.60;99.90
4530;DHT22;2277;51.626;7.516;2024-01-16T12:35:37;6.70;99.90
4530;DHT22;2277;51.626;7.516;2024-01-16T12:38:05;6.80;99.90
4530;DHT22;2277;51.626;7.516;2024-01-16T12:40:32;6.90;99.90
4530;DHT22;2277;51.626;7.516;2024-01-16T12:42:58;6.80;99.90
4530;DHT22;2277;51.626;7.516;2024-01-16T12:45:24;6.90;99.90
4530;DHT22;2277;51.626;7.516;2024-01-16T12:47:53;7.20;99.90
4530;DHT22;2277;51.626;7.516;2024-01-16T12:50:23;7.30;99.90
4530;DHT22;2277;51.626;7.516;2024-01-16T12:52:50;7.30;99.90
4530;DHT22;2277;51.626;7.516;2024-01-16T12:55:16;7.40;99.90
4530;DHT22;2277;51.626;7.516;2024-01-16T12:57:43;7.30;99.90
4530;DHT22;2277;51.626;7.516;2024-01-16T13:00:24;7.40;99.90
4530;DHT22;2277;51.626;7.516;2024-01-16T13:02:53;7.30;99.90
4530;DHT22;2277;51.626;7.516;2024-01-16T13:05:23;7.30;99.90
4530;DHT22;2277;51.626;7.516;2024-01-16T13:08:02;7.30;99.90
4530;DHT22;2277;51.626;7.516;2024-01-16T13:10:31;7.20;99.90
4530;DHT22;2277;51.626;7.516;2024-01-16T13:13:16;7.20;99.90
4530;DHT22;2277;51.626;7.516;2024-01-16T13:15:45;7.00;99.90
4530;DHT22;2277;51.626;7.516;2024-01-16T13:18:22;7.00;99.90
4530;DHT22;2277;51.626;7.516;2024-01-16T13:20:52;6.90;99.90
4530;DHT22;2277;51.626;7.516;2024-01-16T13:23:18;6.90;99.90
4530;DHT22;2277;51.626;7.516;2024-01-16T13:25:44;6.90;99.90
4530;DHT22;2277;51.626;7.516;2024-01-16T13:28:14;6.90;99.90
4530;DHT22;2277;51.626;7.516;2024-01-16T13:30:44;7.00;99.90
4530;DHT22;2277;51.626;7.516;2024-01-16T13:33:10;7.10;99.90
4530;DHT22;2277;51.626;7.516;2024-01-16T13:35:39;7.00;99.90
4530;DHT22;2277;51.626;7.516;2024-01-16T13:38:05;6.80;99.90
4530;DHT22;2277;51.626;7.516;2024-01-16T13:40:32;6.60;99.90
4530;DHT22;2277;51.626;7.516;2024-01-16T13:42:58;6.50;99.90
4530;DHT22;2277;51.626;7.516;2024-01-16T13:45:24;6.30;99.90
4530;DHT22;2277;51.626;7.516;2024-01-16T13:47:49;6.10;99.90
4530;DHT22;2277;51.626;7.516;2024-01-16T13:50:15;5.90;99.90
4530;DHT22;2277;51.626;7.516;2024-01-16T13:52:43;5.80;99.90
4530;DHT22;2277;51.626;7.516;2024-01-16T13:55:09;5.50;99.90
4530;DHT22;2277;51.626;7.516;2024-01-16T13:57:35;5.40;99.90
4530;DHT22;2277;51.626;7.516;2024-01-16T14:00:10;5.30;99.90
4530;DHT22;2277;51.626;7.516;2024-01-16T14:02:48;5.10;99.90
4530;DHT22;2277;51.626;7.516;2024-01-16T14:05:15;5.10;99.90
4530;DHT22;2277;51.626;7.516;2024-01-16T14:07:41;5.00;99.90
4530;DHT22;2277;51.626;7.516;2024-01-16T14:10:10;4.90;99.90
4530;DHT22;2277;51.626;7.516;2024-01-16T14:12:38;4.70;99.90
4530;DHT22;2277;51.626;7.516;2024-01-16T14:15:04;4.70;99.90
4530;DHT22;2277;51.626;7.516;2024-01-16T14:17:32;4.70;99.90
4530;DHT22;2277;51.626;7.516;2024-01-16T14:19:59;4.70;99.90
4530;DHT22;2277;51.626;7.516;2024-01-16T14:22:24;4.70;99.90
4530;DHT22;2277;51.626;7.516;2024-01-16T14:24:52;4.60;99.90
4530;DHT22;2277;51.626;7.516;2024-01-16T14:27:17;4.60;99.90
4530;DHT22;2277;51.626;7.516;2024-01-16T14:29:43;4.60;99.90
4530;DHT22;2277;51.626;7.516;2024-01-16T14:32:08;4.50;99.90
4530;DHT22;2277;51.626;7.516;2024-01-16T14:34:35;4.50;99.90
4530;DHT22;2277;51.626;7.516;2024-01-16T14:37:00;4.50;99.90
4530;DHT22;2277;51.626;7.516;2024-01-16T14:39:26;4.50;99.90
4530;DHT22;2277;51.626;7.516;2024-01-16T14:41:56;4.60;99.90
4530;DHT22;2277;51.626;7.516;2024-01-16T14:44:23;4.60;99.90
4530;DHT22;2277;51.626;7.516;2024-01-16T14:46:49;4.60;99.90
4530;DHT22;2277;51.626;7.516;2024-01-16T14:49:14;4.50;99.90
4530;DHT22;2277;51.626;7.516;2024-01-16T14:51:40;4.40;99.90
4530;DHT22;2277;51.626;7.516;2024-01-16T14:54:06;4.40;99.90
4530;DHT22;2277;51.626;7.516;2024-01-16T14:56:31;4.30;99.90
4530;DHT22;2277;51.626;7.516;2024-01-16T14:58:57;4.30;99.90
4530;DHT22;2277;51.626;7.516;2024-01-16T15:01:23;4.20;99.90
4530;DHT22;2277;51.626;7.516;2024-01-16T15:03:49;4.20;99.90
4530;DHT22;2277;51.626;7.516;2024-01-16T15:06:15;4.10;99.90
4530;DHT22;2277;51.626;7.516;2024-01-16T15:08:42;3.90;99.90
4530;DHT22;2277;51.626;7.516;2024-01-16T15:11:08;4.00;99.90
4530;DHT22;2277;51.626;7.516;2024-01-16T15:13:34;3.90;99.90
4530;DHT22;2277;51.626;7.516;2024-01-16T15:15:59;3.90;99.90
4530;DHT22;2277;51.626;7.516;2024-01-16T15:18:25;4.00;99.90
4530;DHT22;2277;51.626;7.516;2024-01-16T15:20:51;4.00;99.90
4530;DHT22;2277;51.626;7.516;2024-01-16T15:23:17;4.00;99.90
4530;DHT22;2277;51.626;7.516;2024-01-16T15:25:42;4.00;99.90
4530;DHT22;2277;51.626;7.516;2024-01-16T15:28:08;3.90;99.90
4530;DHT22;2277;51.626;7.516;2024-01-16T15:30:34;3.90;99.90
4530;DHT22;2277;51.626;7.516;2024-01-16T15:33:01;3.80;99.90
4530;DHT22;2277;51.626;7.516;2024-01-16T15:35:32;3.70;99.90
4530;DHT22;2277;51.626;7.516;2024-01-16T15:37:58;3.80;99.90
4530;DHT22;2277;51.626;7.516;2024-01-16T15:40:23;3.70;99.90
4530;DHT22;2277;51.626;7.516;2024-01-16T15:42:49;3.70;99.90
4530;DHT22;2277;51.626;7.516;2024-01-16T15:45:16;3.60;99.90
4530;DHT22;2277;51.626;7.516;2024-01-16T15:47:41;3.70;99.90
4530;DHT22;2277;51.626;7.516;2024-01-16T15:50:08;3.60;99.90
4530;DHT22;2277;51.626;7.516;2024-01-16T15:52:34;3.60;99.90
4530;DHT22;2277;51.626;7.516;2024-01-16T15:55:00;3.40;99.90
4530;DHT22;2277;51.626;7.516;2024-01-16T15:57:26;3.30;99.90
4530;DHT22;2277;51.626;7.516;2024-01-16T15:59:52;3.20;99.90
4530;DHT22;2277;51.626;7.516;2024-01-16T16:02:17;3.30;99.90
4530;DHT22;2277;51.626;7.516;2024-01-16T16:04:43;3.30;99.90
4530;DHT22;2277;51.626;7.516;2024-01-16T16:07:10;3.30;99.90
4530;DHT22;2277;51.626;7.516;2024-01-16T16:09:35;3.20;99.90
4530;DHT22;2277;51.626;7.516;2024-01-16T16:12:03;3.20;99.90
4530;DHT22;2277;51.626;7.516;2024-01-16T16:14:29;3.30;99.90
4530;DHT22;2277;51.626;7.516;2024-01-16T16:16:58;3.30;99.90
4530;DHT22;2277;51.626;7.516;2024-01-16T16:19:28;3.20;99.90
4530;DHT22;2277;51.626;7.516;2024-01-16T16:21:54;3.10;99.90